Terminal Aerodrome Forecast
Issued by NWS Charleston, WV

Current Version | Previous Version | Graphics & Text | Print | Product List | Glossary On
Versions: 1 2 3 4 5 6 7 8 9 10 11 12 13 14 15 16 17 18 19 20 21 22 23 24
000
FTUS41 KRLX 282100 AAA
TAFPKB
TAF AMD
KPKB 282152Z 2822/2918 29009KT P6SM BKN035
     FM290700 00000KT 6SM BR SCT080
     FM290900 00000KT 1 1/2SM BR SCT080
     FM291100 00000KT 1/2SM FG FEW120
     FM291300 00000KT 3SM BR SCT150
     FM291400 00000KT P6SM SCT200
      AMD NOT SKED=

USA.gov is the U.S. government's official web portal to all federal, state and local government web resources and services.